sensor_id;sensor_type;location;lat;lon;timestamp;temperature;humidity
21061;DHT22;10689;50.836;3.266;2022-07-03T00:01:53;18.00;99.90
21061;DHT22;10689;50.836;3.266;2022-07-03T00:04:18;18.00;99.90
21061;DHT22;10689;50.836;3.266;2022-07-03T00:06:46;18.00;99.90
21061;DHT22;10689;50.836;3.266;2022-07-03T00:09:12;17.70;99.90
21061;DHT22;10689;50.836;3.266;2022-07-03T00:11:37;17.60;99.90
21061;DHT22;10689;50.836;3.266;2022-07-03T00:14:03;17.60;99.90
21061;DHT22;10689;50.836;3.266;2022-07-03T00:16:29;17.60;99.90
21061;DHT22;10689;50.836;3.266;2022-07-03T00:18:56;17.70;99.90
21061;DHT22;10689;50.836;3.266;2022-07-03T00:21:33;17.60;99.90
21061;DHT22;10689;50.836;3.266;2022-07-03T00:24:07;17.70;99.90
21061;DHT22;10689;50.836;3.266;2022-07-03T00:26:36;17.50;99.90
21061;DHT22;10689;50.836;3.266;2022-07-03T00:29:03;17.40;99.90
21061;DHT22;10689;50.836;3.266;2022-07-03T00:31:32;17.40;99.90
21061;DHT22;10689;50.836;3.266;2022-07-03T00:33:59;17.50;99.90
21061;DHT22;10689;50.836;3.266;2022-07-03T00:36:36;17.50;99.90
21061;DHT22;10689;50.836;3.266;2022-07-03T00:39:03;17.50;99.90
21061;DHT22;10689;50.836;3.266;2022-07-03T00:41:32;17.50;99.90
21061;DHT22;10689;50.836;3.266;2022-07-03T00:43:58;17.40;99.90
21061;DHT22;10689;50.836;3.266;2022-07-03T00:46:25;17.20;99.90
21061;DHT22;10689;50.836;3.266;2022-07-03T00:48:52;17.20;99.90
21061;DHT22;10689;50.836;3.266;2022-07-03T00:51:22;17.10;99.90
21061;DHT22;10689;50.836;3.266;2022-07-03T00:53:54;17.10;99.90
21061;DHT22;10689;50.836;3.266;2022-07-03T00:56:26;17.00;99.90
21061;DHT22;10689;50.836;3.266;2022-07-03T00:58:57;17.10;99.90
21061;DHT22;10689;50.836;3.266;2022-07-03T01:01:26;17.00;99.90
21061;DHT22;10689;50.836;3.266;2022-07-03T01:04:32;16.90;99.90
21061;DHT22;10689;50.836;3.266;2022-07-03T01:07:00;17.00;99.90
21061;DHT22;10689;50.836;3.266;2022-07-03T01:09:47;17.00;99.90
21061;DHT22;10689;50.836;3.266;2022-07-03T01:12:38;17.00;99.90
21061;DHT22;10689;50.836;3.266;2022-07-03T01:15:22;16.90;99.90
21061;DHT22;10689;50.836;3.266;2022-07-03T01:18:08;16.90;99.90
21061;DHT22;10689;50.836;3.266;2022-07-03T01:20:38;17.00;99.90
21061;DHT22;10689;50.836;3.266;2022-07-03T01:26:01;17.10;99.90
21061;DHT22;10689;50.836;3.266;2022-07-03T01:28:28;17.10;99.90
21061;DHT22;10689;50.836;3.266;2022-07-03T01:30:54;17.00;99.90
21061;DHT22;10689;50.836;3.266;2022-07-03T01:33:31;17.00;99.90
21061;DHT22;10689;50.836;3.266;2022-07-03T01:38:38;17.00;99.90
21061;DHT22;10689;50.836;3.266;2022-07-03T01:41:07;16.90;99.90
21061;DHT22;10689;50.836;3.266;2022-07-03T01:43:39;16.90;99.90
21061;DHT22;10689;50.836;3.266;2022-07-03T01:46:07;16.90;99.90
21061;DHT22;10689;50.836;3.266;2022-07-03T01:48:34;16.80;99.90
21061;DHT22;10689;50.836;3.266;2022-07-03T01:51:01;16.70;99.90
21061;DHT22;10689;50.836;3.266;2022-07-03T01:53:29;16.70;99.90
21061;DHT22;10689;50.836;3.266;2022-07-03T01:55:56;16.70;99.90
21061;DHT22;10689;50.836;3.266;2022-07-03T01:58:22;16.70;99.90
21061;DHT22;10689;50.836;3.266;2022-07-03T02:03:32;16.70;99.90
21061;DHT22;10689;50.836;3.266;2022-07-03T02:06:07;16.80;99.90
21061;DHT22;10689;50.836;3.266;2022-07-03T02:11:20;16.90;99.90
21061;DHT22;10689;50.836;3.266;2022-07-03T02:16:24;16.90;99.90
21061;DHT22;10689;50.836;3.266;2022-07-03T02:19:10;16.90;99.90
21061;DHT22;10689;50.836;3.266;2022-07-03T02:21:41;17.00;99.90
21061;DHT22;10689;50.836;3.266;2022-07-03T02:24:18;16.80;99.90
21061;DHT22;10689;50.836;3.266;2022-07-03T02:29:43;16.70;99.90
21061;DHT22;10689;50.836;3.266;2022-07-03T02:32:20;16.60;99.90
21061;DHT22;10689;50.836;3.266;2022-07-03T02:34:52;16.60;99.90
21061;DHT22;10689;50.836;3.266;2022-07-03T02:37:22;16.60;99.90
21061;DHT22;10689;50.836;3.266;2022-07-03T02:39:53;16.40;99.90
21061;DHT22;10689;50.836;3.266;2022-07-03T02:42:43;16.30;99.90
21061;DHT22;10689;50.836;3.266;2022-07-03T02:45:11;16.30;99.90
21061;DHT22;10689;50.836;3.266;2022-07-03T02:50:08;16.10;99.90
21061;DHT22;10689;50.836;3.266;2022-07-03T02:52:42;16.00;99.90
21061;DHT22;10689;50.836;3.266;2022-07-03T02:58:12;15.90;99.90
21061;DHT22;10689;50.836;3.266;2022-07-03T03:00:44;15.80;99.90
21061;DHT22;10689;50.836;3.266;2022-07-03T03:03:12;16.00;99.90
21061;DHT22;10689;50.836;3.266;2022-07-03T03:05:42;15.90;99.90
21061;DHT22;10689;50.836;3.266;2022-07-03T03:08:47;15.70;99.90
21061;DHT22;10689;50.836;3.266;2022-07-03T03:14:09;15.70;99.90
21061;DHT22;10689;50.836;3.266;2022-07-03T03:16:37;15.60;99.90
21061;DHT22;10689;50.836;3.266;2022-07-03T03:19:07;15.60;99.90
21061;DHT22;10689;50.836;3.266;2022-07-03T03:21:37;15.70;99.90
21061;DHT22;10689;50.836;3.266;2022-07-03T03:24:08;15.80;99.90
21061;DHT22;10689;50.836;3.266;2022-07-03T03:26:34;15.80;99.90
21061;DHT22;10689;50.836;3.266;2022-07-03T03:29:00;15.90;99.90
21061;DHT22;10689;50.836;3.266;2022-07-03T03:31:26;16.00;99.90
21061;DHT22;10689;50.836;3.266;2022-07-03T03:33:52;15.80;99.90
21061;DHT22;10689;50.836;3.266;2022-07-03T03:36:20;15.70;99.90
21061;DHT22;10689;50.836;3.266;2022-07-03T03:38:47;15.60;99.90
21061;DHT22;10689;50.836;3.266;2022-07-03T03:41:14;15.60;99.90
21061;DHT22;10689;50.836;3.266;2022-07-03T03:43:39;15.60;99.90
21061;DHT22;10689;50.836;3.266;2022-07-03T03:46:05;15.60;99.90
21061;DHT22;10689;50.836;3.266;2022-07-03T03:48:32;15.70;99.90
21061;DHT22;10689;50.836;3.266;2022-07-03T03:50:59;15.70;99.90
21061;DHT22;10689;50.836;3.266;2022-07-03T03:53:26;15.70;99.90
21061;DHT22;10689;50.836;3.266;2022-07-03T03:56:07;15.60;99.90
21061;DHT22;10689;50.836;3.266;2022-07-03T03:58:35;15.50;99.90
21061;DHT22;10689;50.836;3.266;2022-07-03T04:01:02;15.50;99.90
21061;DHT22;10689;50.836;3.266;2022-07-03T04:03:29;15.50;99.90
21061;DHT22;10689;50.836;3.266;2022-07-03T04:05:55;15.50;99.90
21061;DHT22;10689;50.836;3.266;2022-07-03T04:08:21;15.60;99.90
21061;DHT22;10689;50.836;3.266;2022-07-03T04:10:48;15.70;99.90
21061;DHT22;10689;50.836;3.266;2022-07-03T04:13:15;15.70;99.90
21061;DHT22;10689;50.836;3.266;2022-07-03T04:15:41;15.80;99.90
21061;DHT22;10689;50.836;3.266;2022-07-03T04:18:08;15.70;99.90
21061;DHT22;10689;50.836;3.266;2022-07-03T04:20:34;15.80;99.90
21061;DHT22;10689;50.836;3.266;2022-07-03T04:23:01;15.70;99.90
21061;DHT22;10689;50.836;3.266;2022-07-03T04:25:26;15.70;99.90
21061;DHT22;10689;50.836;3.266;2022-07-03T04:27:52;15.80;99.90
21061;DHT22;10689;50.836;3.266;2022-07-03T04:30:18;15.90;99.90
21061;DHT22;10689;50.836;3.266;2022-07-03T04:32:44;15.80;99.90
21061;DHT22;10689;50.836;3.266;2022-07-03T04:35:10;16.00;99.90
21061;DHT22;10689;50.836;3.266;2022-07-03T04:37:36;16.00;99.90
21061;DHT22;10689;50.836;3.266;2022-07-03T04:40:02;16.00;99.90
21061;DHT22;10689;50.836;3.266;2022-07-03T04:42:28;16.20;99.90
21061;DHT22;10689;50.836;3.266;2022-07-03T04:44:54;16.30;99.90
21061;DHT22;10689;50.836;3.266;2022-07-03T04:47:19;16.30;99.90
21061;DHT22;10689;50.836;3.266;2022-07-03T04:49:46;16.40;99.90
21061;DHT22;10689;50.836;3.266;2022-07-03T04:52:12;16.50;99.90
21061;DHT22;10689;50.836;3.266;2022-07-03T04:54:38;16.50;99.90
21061;DHT22;10689;50.836;3.266;2022-07-03T04:57:04;16.70;99.90
21061;DHT22;10689;50.836;3.266;2022-07-03T04:59:31;16.80;99.90
21061;DHT22;10689;50.836;3.266;2022-07-03T05:01:56;17.00;99.90
21061;DHT22;10689;50.836;3.266;2022-07-03T05:04:22;17.10;99.90
21061;DHT22;10689;50.836;3.266;2022-07-03T05:06:48;17.30;99.90
21061;DHT22;10689;50.836;3.266;2022-07-03T05:09:14;17.40;99.90
21061;DHT22;10689;50.836;3.266;2022-07-03T05:11:40;17.50;99.90
21061;DHT22;10689;50.836;3.266;2022-07-03T05:14:07;17.60;99.90
21061;DHT22;10689;50.836;3.266;2022-07-03T05:16:33;17.50;99.90
21061;DHT22;10689;50.836;3.266;2022-07-03T05:18:59;17.60;99.90
21061;DHT22;10689;50.836;3.266;2022-07-03T05:21:25;17.70;99.90
21061;DHT22;10689;50.836;3.266;2022-07-03T05:23:51;17.70;99.90
21061;DHT22;10689;50.836;3.266;2022-07-03T05:26:17;17.80;99.90
21061;DHT22;10689;50.836;3.266;2022-07-03T05:28:43;17.90;99.90
21061;DHT22;10689;50.836;3.266;2022-07-03T05:31:09;17.90;99.90
21061;DHT22;10689;50.836;3.266;2022-07-03T05:33:35;18.00;99.90
21061;DHT22;10689;50.836;3.266;2022-07-03T05:36:01;18.20;99.90
21061;DHT22;10689;50.836;3.266;2022-07-03T05:38:28;18.30;99.90
21061;DHT22;10689;50.836;3.266;2022-07-03T05:41:12;18.40;99.90
21061;DHT22;10689;50.836;3.266;2022-07-03T05:43:38;18.60;99.90
21061;DHT22;10689;50.836;3.266;2022-07-03T05:46:04;18.70;99.90
21061;DHT22;10689;50.836;3.266;2022-07-03T05:48:30;18.80;99.90
21061;DHT22;10689;50.836;3.266;2022-07-03T05:50:56;18.90;99.90
21061;DHT22;10689;50.836;3.266;2022-07-03T05:53:22;19.10;99.90
21061;DHT22;10689;50.836;3.266;2022-07-03T05:55:48;19.20;99.90
21061;DHT22;10689;50.836;3.266;2022-07-03T05:58:13;19.30;99.90
21061;DHT22;10689;50.836;3.266;2022-07-03T06:00:39;19.20;99.90
21061;DHT22;10689;50.836;3.266;2022-07-03T06:03:05;19.20;99.90
21061;DHT22;10689;50.836;3.266;2022-07-03T06:05:31;19.20;99.90
21061;DHT22;10689;50.836;3.266;2022-07-03T06:07:58;19.20;99.90
21061;DHT22;10689;50.836;3.266;2022-07-03T06:10:24;18.90;99.90
21061;DHT22;10689;50.836;3.266;2022-07-03T06:12:50;18.80;99.90
21061;DHT22;10689;50.836;3.266;2022-07-03T06:15:16;19.00;99.90
21061;DHT22;10689;50.836;3.266;2022-07-03T06:17:42;19.20;99.90
21061;DHT22;10689;50.836;3.266;2022-07-03T06:20:09;19.20;99.90
21061;DHT22;10689;50.836;3.266;2022-07-03T06:22:35;19.40;99.90
21061;DHT22;10689;50.836;3.266;2022-07-03T06:25:01;19.50;99.90
21061;DHT22;10689;50.836;3.266;2022-07-03T06:27:27;19.50;99.90
21061;DHT22;10689;50.836;3.266;2022-07-03T06:29:54;19.50;99.90
21061;DHT22;10689;50.836;3.266;2022-07-03T06:32:20;19.70;99.90
21061;DHT22;10689;50.836;3.266;2022-07-03T06:34:45;19.90;99.90
21061;DHT22;10689;50.836;3.266;2022-07-03T06:37:11;20.00;99.90
21061;DHT22;10689;50.836;3.266;2022-07-03T06:39:38;19.50;99.90
21061;DHT22;10689;50.836;3.266;2022-07-03T06:42:04;19.70;99.90
21061;DHT22;10689;50.836;3.266;2022-07-03T06:44:30;19.90;99.90
21061;DHT22;10689;50.836;3.266;2022-07-03T06:46:56;20.10;99.90
21061;DHT22;10689;50.836;3.266;2022-07-03T06:49:22;20.10;99.90
21061;DHT22;10689;50.836;3.266;2022-07-03T06:51:48;20.30;99.90
21061;DHT22;10689;50.836;3.266;2022-07-03T06:54:14;20.50;99.90
21061;DHT22;10689;50.836;3.266;2022-07-03T06:56:40;20.60;99.90
21061;DHT22;10689;50.836;3.266;2022-07-03T06:59:08;20.40;99.90
21061;DHT22;10689;50.836;3.266;2022-07-03T07:01:34;20.40;99.90
21061;DHT22;10689;50.836;3.266;2022-07-03T07:04:00;20.30;99.90
21061;DHT22;10689;50.836;3.266;2022-07-03T07:06:27;20.30;99.90
21061;DHT22;10689;50.836;3.266;2022-07-03T07:08:53;20.30;99.90
21061;DHT22;10689;50.836;3.266;2022-07-03T07:11:18;19.90;99.90
21061;DHT22;10689;50.836;3.266;2022-07-03T07:13:44;19.70;99.90
21061;DHT22;10689;50.836;3.266;2022-07-03T07:16:10;19.80;99.90
21061;DHT22;10689;50.836;3.266;2022-07-03T07:18:35;20.00;99.90
21061;DHT22;10689;50.836;3.266;2022-07-03T07:21:01;20.00;99.90
21061;DHT22;10689;50.836;3.266;2022-07-03T07:23:27;20.00;99.90
21061;DHT22;10689;50.836;3.266;2022-07-03T07:25:53;19.90;99.90
21061;DHT22;10689;50.836;3.266;2022-07-03T07:28:18;20.00;99.90
21061;DHT22;10689;50.836;3.266;2022-07-03T07:30:44;20.20;99.90
21061;DHT22;10689;50.836;3.266;2022-07-03T07:33:10;20.10;99.90
21061;DHT22;10689;50.836;3.266;2022-07-03T07:35:36;20.30;99.90
21061;DHT22;10689;50.836;3.266;2022-07-03T07:38:02;20.10;99.90
21061;DHT22;10689;50.836;3.266;2022-07-03T07:40:28;19.70;99.90
21061;DHT22;10689;50.836;3.266;2022-07-03T07:42:54;19.40;99.90
21061;DHT22;10689;50.836;3.266;2022-07-03T07:45:19;19.10;99.90
21061;DHT22;10689;50.836;3.266;2022-07-03T07:47:45;19.20;99.90
21061;DHT22;10689;50.836;3.266;2022-07-03T07:50:11;19.40;99.90
21061;DHT22;10689;50.836;3.266;2022-07-03T07:52:37;19.60;99.90
21061;DHT22;10689;50.836;3.266;2022-07-03T07:55:03;19.60;99.90
21061;DHT22;10689;50.836;3.266;2022-07-03T07:57:37;19.40;99.90
21061;DHT22;10689;50.836;3.266;2022-07-03T08:00:10;19.30;99.90
21061;DHT22;10689;50.836;3.266;2022-07-03T08:02:36;19.00;99.90
21061;DHT22;10689;50.836;3.266;2022-07-03T08:05:20;19.00;99.90
21061;DHT22;10689;50.836;3.266;2022-07-03T08:10:40;19.70;99.90
21061;DHT22;10689;50.836;3.266;2022-07-03T08:13:07;20.00;99.90
21061;DHT22;10689;50.836;3.266;2022-07-03T08:15:33;20.30;99.90
21061;DHT22;10689;50.836;3.266;2022-07-03T08:18:00;20.10;99.90
21061;DHT22;10689;50.836;3.266;2022-07-03T08:20:26;19.80;99.90
21061;DHT22;10689;50.836;3.266;2022-07-03T08:22:52;20.00;99.90
21061;DHT22;10689;50.836;3.266;2022-07-03T08:25:18;20.30;99.90
21061;DHT22;10689;50.836;3.266;2022-07-03T08:27:43;20.60;99.90
21061;DHT22;10689;50.836;3.266;2022-07-03T08:30:09;20.80;99.90
21061;DHT22;10689;50.836;3.266;2022-07-03T08:32:35;20.60;99.90
21061;DHT22;10689;50.836;3.266;2022-07-03T08:35:01;20.40;99.90
21061;DHT22;10689;50.836;3.266;2022-07-03T08:37:27;20.10;99.90
21061;DHT22;10689;50.836;3.266;2022-07-03T08:39:52;20.00;99.90
21061;DHT22;10689;50.836;3.266;2022-07-03T08:42:19;20.40;99.90
21061;DHT22;10689;50.836;3.266;2022-07-03T08:44:46;20.70;99.90
21061;DHT22;10689;50.836;3.266;2022-07-03T08:47:12;20.30;99.90
21061;DHT22;10689;50.836;3.266;2022-07-03T08:49:39;20.40;99.90
21061;DHT22;10689;50.836;3.266;2022-07-03T08:52:05;20.60;99.90
21061;DHT22;10689;50.836;3.266;2022-07-03T08:54:33;21.00;99.90
21061;DHT22;10689;50.836;3.266;2022-07-03T08:57:02;20.90;99.90
21061;DHT22;10689;50.836;3.266;2022-07-03T08:59:34;20.60;99.90
21061;DHT22;10689;50.836;3.266;2022-07-03T09:02:03;20.50;99.90
21061;DHT22;10689;50.836;3.266;2022-07-03T09:04:31;20.40;99.90
21061;DHT22;10689;50.836;3.266;2022-07-03T09:06:58;20.50;99.90
21061;DHT22;10689;50.836;3.266;2022-07-03T09:09:24;20.70;99.90
21061;DHT22;10689;50.836;3.266;2022-07-03T09:11:51;20.80;99.90
21061;DHT22;10689;50.836;3.266;2022-07-03T09:14:17;21.30;99.90
21061;DHT22;10689;50.836;3.266;2022-07-03T09:16:43;22.00;99.90
21061;DHT22;10689;50.836;3.266;2022-07-03T09:19:09;22.50;99.90
21061;DHT22;10689;50.836;3.266;2022-07-03T09:21:41;22.60;99.90
21061;DHT22;10689;50.836;3.266;2022-07-03T09:24:09;22.70;99.90
21061;DHT22;10689;50.836;3.266;2022-07-03T09:26:35;22.20;99.90
21061;DHT22;10689;50.836;3.266;2022-07-03T09:29:01;21.90;99.90
21061;DHT22;10689;50.836;3.266;2022-07-03T09:31:29;21.30;99.90
21061;DHT22;10689;50.836;3.266;2022-07-03T09:33:58;21.20;99.90
21061;DHT22;10689;50.836;3.266;2022-07-03T09:36:42;21.20;99.90
21061;DHT22;10689;50.836;3.266;2022-07-03T09:39:26;21.30;99.90
21061;DHT22;10689;50.836;3.266;2022-07-03T09:44:39;21.90;99.90
21061;DHT22;10689;50.836;3.266;2022-07-03T09:49:55;22.00;99.90
21061;DHT22;10689;50.836;3.266;2022-07-03T09:52:34;22.10;99.90
21061;DHT22;10689;50.836;3.266;2022-07-03T10:03:05;21.70;99.90
21061;DHT22;10689;50.836;3.266;2022-07-03T10:05:36;22.20;99.90
21061;DHT22;10689;50.836;3.266;2022-07-03T10:08:05;22.40;99.90
21061;DHT22;10689;50.836;3.266;2022-07-03T10:10:36;22.30;99.90
21061;DHT22;10689;50.836;3.266;2022-07-03T10:13:03;22.30;99.90
21061;DHT22;10689;50.836;3.266;2022-07-03T10:15:31;22.50;99.90
21061;DHT22;10689;50.836;3.266;2022-07-03T10:17:59;22.50;99.90
21061;DHT22;10689;50.836;3.266;2022-07-03T10:22:52;22.70;99.90
21061;DHT22;10689;50.836;3.266;2022-07-03T10:25:18;22.50;99.90
21061;DHT22;10689;50.836;3.266;2022-07-03T10:27:45;22.10;99.90
21061;DHT22;10689;50.836;3.266;2022-07-03T10:30:16;21.90;99.90
21061;DHT22;10689;50.836;3.266;2022-07-03T10:32:47;21.90;99.90
21061;DHT22;10689;50.836;3.266;2022-07-03T10:35:23;21.80;99.90
21061;DHT22;10689;50.836;3.266;2022-07-03T10:37:57;22.10;99.90
21061;DHT22;10689;50.836;3.266;2022-07-03T10:43:43;22.90;99.90
21061;DHT22;10689;50.836;3.266;2022-07-03T10:46:29;22.80;99.90
21061;DHT22;10689;50.836;3.266;2022-07-03T10:51:28;22.60;99.90
21061;DHT22;10689;50.836;3.266;2022-07-03T11:02:21;23.90;99.90
21061;DHT22;10689;50.836;3.266;2022-07-03T11:07:23;23.20;99.90
21061;DHT22;10689;50.836;3.266;2022-07-03T11:15:33;22.80;99.90
21061;DHT22;10689;50.836;3.266;2022-07-03T11:26:19;22.80;99.90
21061;DHT22;10689;50.836;3.266;2022-07-03T11:33:48;22.80;99.90
21061;DHT22;10689;50.836;3.266;2022-07-03T11:38:45;22.70;99.90
21061;DHT22;10689;50.836;3.266;2022-07-03T11:41:12;22.70;99.90
21061;DHT22;10689;50.836;3.266;2022-07-03T11:43:49;22.80;99.90
21061;DHT22;10689;50.836;3.266;2022-07-03T11:46:22;22.70;99.90
21061;DHT22;10689;50.836;3.266;2022-07-03T11:48:48;22.90;99.90
21061;DHT22;10689;50.836;3.266;2022-07-03T11:51:15;22.90;99.90
21061;DHT22;10689;50.836;3.266;2022-07-03T11:53:41;23.00;99.90
21061;DHT22;10689;50.836;3.266;2022-07-03T11:56:09;23.00;99.90
21061;DHT22;10689;50.836;3.266;2022-07-03T11:58:49;23.10;99.90
21061;DHT22;10689;50.836;3.266;2022-07-03T12:03:48;22.80;99.90
21061;DHT22;10689;50.836;3.266;2022-07-03T12:06:14;22.80;99.90
21061;DHT22;10689;50.836;3.266;2022-07-03T12:08:40;23.10;99.90
21061;DHT22;10689;50.836;3.266;2022-07-03T12:11:09;23.70;99.90
21061;DHT22;10689;50.836;3.266;2022-07-03T12:13:35;24.30;99.90
21061;DHT22;10689;50.836;3.266;2022-07-03T12:16:05;24.90;99.90
21061;DHT22;10689;50.836;3.266;2022-07-03T12:18:52;25.40;99.90
21061;DHT22;10689;50.836;3.266;2022-07-03T12:21:21;25.40;99.90
21061;DHT22;10689;50.836;3.266;2022-07-03T12:23:49;25.40;99.90
21061;DHT22;10689;50.836;3.266;2022-07-03T12:26:33;25.80;99.90
21061;DHT22;10689;50.836;3.266;2022-07-03T12:29:16;26.10;99.90
21061;DHT22;10689;50.836;3.266;2022-07-03T12:31:47;26.20;99.90
21061;DHT22;10689;50.836;3.266;2022-07-03T12:34:14;26.50;99.90
21061;DHT22;10689;50.836;3.266;2022-07-03T12:36:41;26.80;99.90
21061;DHT22;10689;50.836;3.266;2022-07-03T12:39:18;26.90;99.90
21061;DHT22;10689;50.836;3.266;2022-07-03T12:41:44;27.30;99.90
21061;DHT22;10689;50.836;3.266;2022-07-03T12:44:10;27.60;99.90
21061;DHT22;10689;50.836;3.266;2022-07-03T12:46:36;27.80;99.90
21061;DHT22;10689;50.836;3.266;2022-07-03T12:49:13;27.90;99.90
21061;DHT22;10689;50.836;3.266;2022-07-03T12:51:53;27.50;99.90
21061;DHT22;10689;50.836;3.266;2022-07-03T12:54:33;26.80;99.90
21061;DHT22;10689;50.836;3.266;2022-07-03T12:57:07;26.40;99.90
21061;DHT22;10689;50.836;3.266;2022-07-03T13:00:05;26.40;99.90
21061;DHT22;10689;50.836;3.266;2022-07-03T13:02:33;25.60;99.90
21061;DHT22;10689;50.836;3.266;2022-07-03T13:04:59;25.00;99.90
21061;DHT22;10689;50.836;3.266;2022-07-03T13:07:29;24.30;99.90
21061;DHT22;10689;50.836;3.266;2022-07-03T13:09:59;24.00;99.90
21061;DHT22;10689;50.836;3.266;2022-07-03T13:12:26;23.80;99.90
21061;DHT22;10689;50.836;3.266;2022-07-03T13:14:58;23.40;99.90
21061;DHT22;10689;50.836;3.266;2022-07-03T13:20:22;24.30;99.90
21061;DHT22;10689;50.836;3.266;2022-07-03T13:22:51;24.60;99.90
21061;DHT22;10689;50.836;3.266;2022-07-03T13:25:17;24.70;99.90
21061;DHT22;10689;50.836;3.266;2022-07-03T13:27:43;25.40;99.90
21061;DHT22;10689;50.836;3.266;2022-07-03T13:30:12;25.30;99.90
21061;DHT22;10689;50.836;3.266;2022-07-03T13:32:37;25.20;99.90
21061;DHT22;10689;50.836;3.266;2022-07-03T13:35:04;25.40;99.90
21061;DHT22;10689;50.836;3.266;2022-07-03T13:37:31;25.40;99.90
21061;DHT22;10689;50.836;3.266;2022-07-03T13:39:56;25.80;99.90
21061;DHT22;10689;50.836;3.266;2022-07-03T13:42:22;26.30;99.90
21061;DHT22;10689;50.836;3.266;2022-07-03T13:44:48;26.40;99.90
21061;DHT22;10689;50.836;3.266;2022-07-03T13:47:15;26.00;99.90
21061;DHT22;10689;50.836;3.266;2022-07-03T13:49:41;26.60;99.90
21061;DHT22;10689;50.836;3.266;2022-07-03T13:52:07;27.10;99.90
21061;DHT22;10689;50.836;3.266;2022-07-03T13:54:33;27.90;99.90
21061;DHT22;10689;50.836;3.266;2022-07-03T13:56:59;28.00;99.90
21061;DHT22;10689;50.836;3.266;2022-07-03T13:59:24;28.50;99.90
21061;DHT22;10689;50.836;3.266;2022-07-03T14:01:50;28.00;99.90
21061;DHT22;10689;50.836;3.266;2022-07-03T14:04:16;27.10;99.90
21061;DHT22;10689;50.836;3.266;2022-07-03T14:06:41;26.60;99.90
21061;DHT22;10689;50.836;3.266;2022-07-03T14:09:07;26.90;99.90
21061;DHT22;10689;50.836;3.266;2022-07-03T14:11:33;26.90;99.90
21061;DHT22;10689;50.836;3.266;2022-07-03T14:13:59;26.70;99.90
21061;DHT22;10689;50.836;3.266;2022-07-03T14:16:24;26.20;99.90
21061;DHT22;10689;50.836;3.266;2022-07-03T14:18:50;25.70;99.90
21061;DHT22;10689;50.836;3.266;2022-07-03T14:21:16;25.40;99.90
21061;DHT22;10689;50.836;3.266;2022-07-03T14:23:41;25.50;99.90
21061;DHT22;10689;50.836;3.266;2022-07-03T14:26:07;25.40;99.90
21061;DHT22;10689;50.836;3.266;2022-07-03T14:28:33;25.40;99.90
21061;DHT22;10689;50.836;3.266;2022-07-03T14:31:17;25.70;99.90
21061;DHT22;10689;50.836;3.266;2022-07-03T14:33:50;25.70;99.90
21061;DHT22;10689;50.836;3.266;2022-07-03T14:36:16;25.70;99.90
21061;DHT22;10689;50.836;3.266;2022-07-03T14:38:42;25.40;99.90
21061;DHT22;10689;50.836;3.266;2022-07-03T14:41:07;25.30;99.90
21061;DHT22;10689;50.836;3.266;2022-07-03T14:43:33;25.20;99.90
21061;DHT22;10689;50.836;3.266;2022-07-03T14:45:59;25.40;99.90
21061;DHT22;10689;50.836;3.266;2022-07-03T14:48:26;25.80;99.90
21061;DHT22;10689;50.836;3.266;2022-07-03T14:50:52;25.70;99.90
21061;DHT22;10689;50.836;3.266;2022-07-03T14:53:19;25.70;99.90
21061;DHT22;10689;50.836;3.266;2022-07-03T14:55:45;25.10;99.90
21061;DHT22;10689;50.836;3.266;2022-07-03T14:58:21;25.10;99.90
21061;DHT22;10689;50.836;3.266;2022-07-03T15:00:50;25.10;99.90
21061;DHT22;10689;50.836;3.266;2022-07-03T15:03:29;25.30;99.90
21061;DHT22;10689;50.836;3.266;2022-07-03T15:05:58;25.10;99.90
21061;DHT22;10689;50.836;3.266;2022-07-03T15:10:59;24.60;99.90
21061;DHT22;10689;50.836;3.266;2022-07-03T15:13:27;24.60;99.90
21061;DHT22;10689;50.836;3.266;2022-07-03T15:15:53;24.70;99.90
21061;DHT22;10689;50.836;3.266;2022-07-03T15:18:20;24.80;99.90
21061;DHT22;10689;50.836;3.266;2022-07-03T15:20:47;25.20;99.90
21061;DHT22;10689;50.836;3.266;2022-07-03T15:23:17;25.30;99.90
21061;DHT22;10689;50.836;3.266;2022-07-03T15:25:45;25.20;99.90
21061;DHT22;10689;50.836;3.266;2022-07-03T15:28:12;24.80;99.90
21061;DHT22;10689;50.836;3.266;2022-07-03T15:30:46;24.80;99.90
21061;DHT22;10689;50.836;3.266;2022-07-03T15:33:12;25.00;99.90
21061;DHT22;10689;50.836;3.266;2022-07-03T15:35:50;25.30;99.90
21061;DHT22;10689;50.836;3.266;2022-07-03T15:38:20;26.20;99.90
21061;DHT22;10689;50.836;3.266;2022-07-03T15:40:55;27.00;99.90
21061;DHT22;10689;50.836;3.266;2022-07-03T15:52:03;25.70;99.90
21061;DHT22;10689;50.836;3.266;2022-07-03T15:59:47;25.80;99.90
21061;DHT22;10689;50.836;3.266;2022-07-03T16:02:21;25.70;99.90
21061;DHT22;10689;50.836;3.266;2022-07-03T16:05:10;25.50;99.90
21061;DHT22;10689;50.836;3.266;2022-07-03T16:07:38;25.50;99.90
21061;DHT22;10689;50.836;3.266;2022-07-03T16:10:09;25.60;99.90
21061;DHT22;10689;50.836;3.266;2022-07-03T16:12:36;25.80;99.90
21061;DHT22;10689;50.836;3.266;2022-07-03T16:15:06;25.70;99.90
21061;DHT22;10689;50.836;3.266;2022-07-03T16:17:33;26.10;99.90
21061;DHT22;10689;50.836;3.266;2022-07-03T16:20:00;27.00;99.90
21061;DHT22;10689;50.836;3.266;2022-07-03T16:22:27;27.10;99.90
21061;DHT22;10689;50.836;3.266;2022-07-03T16:24:55;26.80;99.90
21061;DHT22;10689;50.836;3.266;2022-07-03T16:27:23;26.20;99.90
21061;DHT22;10689;50.836;3.266;2022-07-03T16:29:50;25.70;99.90
21061;DHT22;10689;50.836;3.266;2022-07-03T16:32:20;25.40;99.90
21061;DHT22;10689;50.836;3.266;2022-07-03T16:35:04;25.20;99.90
21061;DHT22;10689;50.836;3.266;2022-07-03T16:37:45;25.80;99.90
21061;DHT22;10689;50.836;3.266;2022-07-03T16:40:12;26.60;99.90
21061;DHT22;10689;50.836;3.266;2022-07-03T16:42:43;27.10;99.90
21061;DHT22;10689;50.836;3.266;2022-07-03T16:45:11;28.40;99.90
21061;DHT22;10689;50.836;3.266;2022-07-03T16:47:43;29.80;99.90
21061;DHT22;10689;50.836;3.266;2022-07-03T16:50:12;31.00;99.90
21061;DHT22;10689;50.836;3.266;2022-07-03T16:52:45;31.90;99.90
21061;DHT22;10689;50.836;3.266;2022-07-03T16:55:11;31.20;99.90
21061;DHT22;10689;50.836;3.266;2022-07-03T16:57:49;30.00;99.90
21061;DHT22;10689;50.836;3.266;2022-07-03T17:00:18;28.90;99.90
21061;DHT22;10689;50.836;3.266;2022-07-03T17:02:45;29.30;99.90
21061;DHT22;10689;50.836;3.266;2022-07-03T17:05:14;29.60;99.90
21061;DHT22;10689;50.836;3.266;2022-07-03T17:07:41;29.40;99.90
21061;DHT22;10689;50.836;3.266;2022-07-03T17:10:11;29.00;99.90
21061;DHT22;10689;50.836;3.266;2022-07-03T17:12:40;29.90;99.90
21061;DHT22;10689;50.836;3.266;2022-07-03T17:15:07;30.70;99.90
21061;DHT22;10689;50.836;3.266;2022-07-03T17:17:33;30.40;99.90
21061;DHT22;10689;50.836;3.266;2022-07-03T17:20:04;30.60;99.90
21061;DHT22;10689;50.836;3.266;2022-07-03T17:22:31;31.40;99.90
21061;DHT22;10689;50.836;3.266;2022-07-03T17:24:58;31.50;99.90